createdAt,value
2018-02-21T10:36:52.887Z,29.37
2018-02-21T10:39:20.419Z,29.77
2018-02-21T10:41:48.706Z,29.83
2018-02-21T10:44:17.004Z,28.67
2018-02-21T10:46:44.519Z,29.50
2018-02-21T10:49:12.140Z,28.93
2018-02-21T10:51:39.649Z,28.17
2018-02-21T10:54:07.245Z,29.23
2018-02-21T10:56:35.519Z,29.70
2018-02-21T10:59:03.855Z,28.63
2018-02-21T11:01:31.367Z,28.20
2018-02-21T11:03:59.674Z,29.73
2018-02-21T11:06:27.236Z,29.93
2018-02-21T11:08:55.502Z,30.07
2018-02-21T11:11:23.022Z,29.80
2018-02-21T11:13:50.553Z,29.53
2018-02-21T11:16:18.065Z,29.30
2018-02-21T11:18:45.646Z,28.43
2018-02-21T11:21:13.935Z,28.90
2018-02-21T11:23:42.246Z,28.60
2018-02-21T11:26:09.874Z,28.37
2018-02-21T11:28:38.261Z,27.47
2018-02-21T11:31:06.530Z,27.87
2018-02-21T11:33:34.803Z,27.13
2018-02-21T11:36:03.107Z,26.80
2018-02-21T11:38:30.617Z,26.40
2018-02-21T11:40:58.126Z,28.27
2018-02-21T11:43:26.410Z,27.33
2018-02-21T11:45:54.787Z,27.83
2018-02-21T11:48:23.061Z,28.20
2018-02-21T11:50:51.369Z,28.80
2018-02-21T11:53:18.881Z,27.63
2018-02-21T11:55:46.395Z,28.23
2018-02-21T11:58:13.910Z,27.83
2018-02-21T12:00:41.419Z,27.03
2018-02-21T12:03:08.931Z,26.93
2018-02-21T12:05:36.452Z,27.57
2018-02-21T12:08:04.003Z,27.90
2018-02-21T12:10:31.557Z,27.20
2018-02-21T12:12:59.833Z,28.53
2018-02-21T12:15:28.108Z,26.30
2018-02-21T12:17:56.409Z,27.23
2018-02-21T12:20:24.361Z,26.80
2018-02-21T12:22:51.881Z,27.70
2018-02-21T12:25:19.390Z,27.67
2018-02-21T12:27:47.695Z,28.10
2018-02-21T12:30:15.204Z,27.57
2018-02-21T12:32:44.540Z,29.63
2018-02-21T12:35:12.817Z,28.03
2018-02-21T12:37:41.473Z,25.87
2018-02-21T12:40:08.979Z,27.07
2018-02-21T12:42:37.272Z,28.10
2018-02-21T12:45:04.833Z,25.77
2018-02-21T12:47:33.111Z,26.63
2018-02-21T12:50:02.333Z,26.43
2018-02-21T12:52:29.857Z,25.63
2018-02-21T12:54:57.371Z,25.90
2018-02-21T12:57:24.881Z,26.30
2018-02-21T12:59:52.407Z,26.43
2018-02-21T13:02:19.919Z,25.53
2018-02-21T13:04:48.197Z,26.20
2018-02-21T13:07:16.473Z,25.93
2018-02-21T13:09:44.053Z,25.90
2018-02-21T13:12:12.437Z,26.33
2018-02-21T13:14:40.712Z,25.33
2018-02-21T13:17:08.999Z,27.00
2018-02-21T13:19:37.385Z,27.20
2018-02-21T13:22:04.946Z,27.07
2018-02-21T13:24:33.327Z,27.17
2018-02-21T13:27:01.720Z,27.20
2018-02-21T13:29:29.241Z,25.70
2018-02-21T13:31:56.884Z,26.90
2018-02-21T13:34:24.401Z,25.13
2018-02-21T13:36:52.786Z,24.57
2018-02-21T13:39:21.067Z,26.40
2018-02-21T13:41:49.354Z,26.47
2018-02-21T13:44:17.750Z,26.43
2018-02-21T13:46:45.296Z,26.40
2018-02-21T13:49:12.812Z,26.70
2018-02-21T13:51:40.554Z,28.20
2018-02-21T13:54:08.107Z,24.97
2018-02-21T13:56:35.664Z,25.73
2018-02-21T13:59:03.187Z,25.90
2018-02-21T14:01:31.365Z,25.70
2018-02-21T14:03:58.909Z,24.70
2018-02-21T14:06:26.432Z,24.80
2018-02-21T14:08:53.986Z,23.67
2018-02-21T14:11:22.256Z,23.93
2018-02-21T14:13:49.771Z,23.83
2018-02-21T14:16:17.290Z,24.67
2018-02-21T14:18:45.566Z,25.57
2018-02-21T14:21:13.861Z,23.90
2018-02-21T14:23:42.138Z,26.07
2018-02-21T14:26:10.521Z,23.83
2018-02-21T14:28:38.792Z,23.70
2018-02-21T14:31:07.064Z,24.80
2018-02-21T14:33:34.604Z,22.93
2018-02-21T14:36:02.125Z,24.67
2018-02-21T14:38:29.651Z,24.77
2018-02-21T14:40:57.168Z,25.03
2018-02-21T14:43:24.692Z,23.63
2018-02-21T14:45:52.970Z,25.03
2018-02-21T14:48:21.246Z,24.23
2018-02-21T14:50:48.769Z,23.97
2018-02-21T14:53:16.271Z,22.97
2018-02-21T14:55:43.790Z,23.57
2018-02-21T14:58:11.296Z,24.60
2018-02-21T15:00:39.600Z,24.23
2018-02-21T15:03:07.125Z,23.40
2018-02-21T15:05:34.654Z,22.83
2018-02-21T15:08:02.193Z,23.00
2018-02-21T15:10:29.706Z,22.33
2018-02-21T15:12:57.358Z,22.90
2018-02-21T15:15:24.873Z,22.20
2018-02-21T15:17:53.151Z,21.10
2018-02-21T15:20:21.433Z,21.80
2018-02-21T15:22:49.722Z,22.20
2018-02-21T15:25:17.253Z,21.70
2018-02-21T15:27:44.797Z,21.03
2018-02-21T15:30:12.421Z,21.40
2018-02-21T15:32:39.990Z,21.43
2018-02-21T15:35:07.585Z,20.93
2018-02-21T15:37:35.116Z,21.30
2018-02-21T15:40:02.640Z,20.37
2018-02-21T15:42:30.157Z,20.70
2018-02-21T15:44:57.710Z,19.77
2018-02-21T15:47:25.231Z,19.63
2018-02-21T15:49:52.837Z,19.83
2018-02-21T15:52:20.371Z,19.50
2018-02-21T15:54:47.900Z,19.47
2018-02-21T15:57:15.409Z,19.77
2018-02-21T15:59:43.682Z,19.40
2018-02-21T16:02:12.003Z,18.83
2018-02-21T16:04:39.524Z,21.00
2018-02-21T16:07:07.040Z,19.13
2018-02-21T16:09:34.552Z,19.30
2018-02-21T16:12:02.856Z,18.37
2018-02-21T16:14:31.250Z,19.03
2018-02-21T16:16:58.776Z,19.20
2018-02-21T16:19:27.088Z,19.97
2018-02-21T16:21:54.605Z,19.30
2018-02-21T16:24:22.915Z,19.03
2018-02-21T16:26:51.199Z,20.30
2018-02-21T16:29:18.727Z,18.43
2018-02-21T16:31:46.332Z,18.47
2018-02-21T16:34:14.457Z,19.07
2018-02-21T16:36:41.976Z,19.30
2018-02-21T16:39:10.367Z,19.07
2018-02-21T16:41:37.928Z,19.30
2018-02-21T16:44:05.593Z,18.67
2018-02-21T16:46:33.978Z,18.80
2018-02-21T16:49:01.543Z,18.53
2018-02-21T16:51:29.063Z,18.80
2018-02-21T16:54:02.283Z,18.77
2018-02-21T16:56:30.568Z,19.23
2018-02-21T16:58:58.849Z,18.50
2018-02-21T17:01:27.148Z,17.60
2018-02-21T17:03:54.667Z,18.43
2018-02-21T17:06:22.179Z,18.23
2018-02-21T17:08:49.695Z,18.47
2018-02-21T17:11:17.233Z,17.40
2018-02-21T17:13:44.956Z,18.17
2018-02-21T17:16:13.232Z,17.67
2018-02-21T17:18:41.659Z,17.03
2018-02-21T17:21:09.190Z,17.67
2018-02-21T17:23:36.703Z,17.57
2018-02-21T17:26:04.252Z,18.33
2018-02-21T17:28:31.764Z,17.10
2018-02-21T17:31:00.050Z,17.87
2018-02-21T17:33:28.344Z,16.50
2018-02-21T17:35:55.915Z,16.53
2018-02-21T17:38:23.433Z,15.87
2018-02-21T17:40:56.632Z,16.20
2018-02-21T17:43:24.153Z,17.00
2018-02-21T17:45:51.771Z,15.67
2018-02-21T17:48:20.057Z,17.60
2018-02-21T17:50:48.334Z,18.80
2018-02-21T17:53:15.864Z,18.23
2018-02-21T17:55:43.411Z,17.67
2018-02-21T17:58:10.938Z,18.93
2018-02-21T18:00:39.222Z,19.27
2018-02-21T18:03:06.791Z,21.20
2018-02-21T18:05:34.310Z,19.23
2018-02-21T18:08:01.836Z,18.60
2018-02-21T18:10:29.345Z,18.33
2018-02-21T18:12:56.857Z,19.33
2018-02-21T18:15:25.300Z,19.75
2018-02-21T18:17:52.887Z,18.20
2018-02-21T18:20:20.400Z,19.67
2018-02-21T18:22:47.925Z,17.90
2018-02-21T18:25:15.475Z,18.20
2018-02-21T18:27:43.861Z,17.37
2018-02-21T18:30:11.376Z,16.80
2018-02-21T18:32:38.894Z,17.03
2018-02-21T18:35:06.428Z,16.97
2018-02-21T18:37:33.935Z,16.87
2018-02-21T18:40:01.472Z,17.60
2018-02-21T18:42:29.767Z,16.77
2018-02-21T18:44:57.301Z,16.47
2018-02-21T18:47:24.807Z,17.30
2018-02-21T18:49:52.355Z,15.33
2018-02-21T18:52:19.924Z,16.47
2018-02-21T18:54:47.437Z,18.67
2018-02-21T18:57:14.987Z,18.83
2018-02-21T18:59:42.503Z,18.03
2018-02-21T19:02:10.807Z,17.70
2018-02-21T19:04:38.326Z,17.57
2018-02-21T19:07:06.092Z,17.67
2018-02-21T19:09:33.672Z,17.37
2018-02-21T19:12:01.978Z,17.63
2018-02-21T19:14:29.810Z,16.70
2018-02-21T19:16:57.352Z,16.63
2018-02-21T19:19:24.882Z,16.23
2018-02-21T19:21:52.437Z,17.00
2018-02-21T19:24:19.998Z,16.10
2018-02-21T19:26:48.486Z,15.97
2018-02-21T19:29:16.049Z,16.17
2018-02-21T19:31:43.562Z,16.87
2018-02-21T19:34:11.143Z,16.13
2018-02-21T19:36:38.729Z,16.47
2018-02-21T19:39:06.266Z,16.20
2018-02-21T19:41:34.568Z,16.83
2018-02-21T19:44:02.847Z,15.63
2018-02-21T19:46:31.146Z,16.80
2018-02-21T19:48:58.715Z,16.07
2018-02-21T19:51:26.246Z,16.57
2018-02-21T19:53:54.542Z,15.90
2018-02-21T19:56:22.073Z,15.57
2018-02-21T19:58:50.415Z,16.10
2018-02-21T20:01:17.935Z,16.20
2018-02-21T20:03:45.598Z,15.67
2018-02-21T20:06:13.122Z,16.27
2018-02-21T20:08:40.650Z,17.37
2018-02-21T20:11:08.226Z,16.57
2018-02-21T20:13:35.750Z,15.63
2018-02-21T20:16:03.348Z,16.90
2018-02-21T20:18:31.438Z,16.03
2018-02-21T20:20:58.954Z,17.13
2018-02-21T20:23:27.237Z,16.97
2018-02-21T20:25:54.753Z,16.20
2018-02-21T20:28:22.262Z,16.10
2018-02-21T20:30:49.784Z,16.60
2018-02-21T20:33:17.309Z,17.70
2018-02-21T20:35:45.396Z,15.90
2018-02-21T20:38:13.344Z,16.13
2018-02-21T20:40:41.651Z,17.23
2018-02-21T20:43:09.177Z,17.70
2018-02-21T20:45:36.717Z,17.33
2018-02-21T20:48:04.238Z,17.83
2018-02-21T20:50:31.751Z,17.03
2018-02-21T20:52:59.269Z,17.20
2018-02-21T20:55:26.783Z,16.97
2018-02-21T20:57:54.319Z,16.10
2018-02-21T21:00:21.833Z,16.47
2018-02-21T21:02:50.110Z,15.27
2018-02-21T21:05:17.700Z,16.53
2018-02-21T21:07:45.261Z,16.50
2018-02-21T21:10:12.785Z,16.87
2018-02-21T21:12:40.310Z,15.80
2018-02-21T21:15:07.828Z,15.93
2018-02-21T21:17:35.343Z,16.37
2018-02-21T21:20:03.088Z,15.83
2018-02-21T21:22:30.624Z,16.40
2018-02-21T21:24:58.900Z,15.80
2018-02-21T21:27:26.417Z,16.33
2018-02-21T21:29:53.929Z,16.63
2018-02-21T21:32:21.525Z,15.43
2018-02-21T21:34:49.042Z,15.57
2018-02-21T21:37:17.355Z,15.77
2018-02-21T21:39:45.633Z,15.47
2018-02-21T21:42:13.926Z,15.43
2018-02-21T21:44:41.454Z,16.23
2018-02-21T21:47:08.963Z,16.17
2018-02-21T21:49:36.507Z,16.20
2018-02-21T21:52:04.787Z,15.73
2018-02-21T21:54:33.059Z,15.40
2018-02-21T21:57:01.337Z,15.53
2018-02-21T21:59:29.626Z,15.33
2018-02-21T22:01:57.913Z,15.63
2018-02-21T22:04:26.241Z,15.20
2018-02-21T22:06:53.728Z,16.43
2018-02-21T22:09:21.355Z,16.13
2018-02-21T22:11:48.939Z,15.27
2018-02-21T22:14:16.462Z,15.43
2018-02-21T22:16:44.031Z,15.40
